Aviation Digital Data Service (ADDS)

Output produced by METARs form (1215 UTC 19 November 2017)
found at http://aviationweather.gov/adds/metars/
 
KJAN 191121Z 1912/2012 35008KT P6SM SKC 
     FM191500 36012G27KT P6SM SKC 
     FM192300 34007KT P6SM SKC